EZY87FM LEPA-EGKK
Flight info
| Callsign | EZY87FM |
|---|---|
| Flight time | N/A |
| Altitude | 34000 |
| Route | DRAGO DCT PAPOS DCT UMURE DCT XIKEN DCT KARES DCT ARBEK DCT REBUL DCT USKAR DCT MOPAS DCT GIROM DCT GONUP DCT MANAK DCT TIRAV DCT DIXAD DCT NTS DCT BAKUL DCT REN DCT UPALO DCT REVTU DCT ODREP UP88 VASUX |
| Aircraft | A320/M-SDE2E3FGHIJ1RWXYZ/LB1 |
Departure
| Time | N/A |
|---|---|
| Airport | Palma de Mallorca Airport (LEPA) |
Arrival
| Time | 2026-05-04 23:34 |
|---|---|
| Airport | London Gatwick Airport (EGKK) |
| Time | Latitude | Longitude | Altitude | Speed | Heading |
|---|---|---|---|---|---|
| 2026-05-04 22:55 | 47.20634 | -1.56150 | 33982 ft | 477 kts | 358° |
| 2026-05-04 22:55 | 47.23953 | -1.56370 | 33985 ft | 477 kts | 358° |
| 2026-05-04 22:55 | 47.30599 | -1.56804 | 33972 ft | 482 kts | 358° |
| 2026-05-04 22:56 | 47.37364 | -1.57243 | 33968 ft | 491 kts | 358° |
| 2026-05-04 22:56 | 47.44234 | -1.57696 | 33967 ft | 496 kts | 358° |
| 2026-05-04 22:57 | 47.51104 | -1.58156 | 33964 ft | 498 kts | 358° |
| 2026-05-04 22:57 | 47.58021 | -1.58610 | 33967 ft | 498 kts | 358° |
| 2026-05-04 22:58 | 47.64961 | -1.59068 | 33969 ft | 500 kts | 358° |
| 2026-05-04 22:58 | 47.71913 | -1.59543 | 33976 ft | 501 kts | 358° |
| 2026-05-04 22:59 | 47.78881 | -1.60004 | 33984 ft | 501 kts | 358° |
| 2026-05-04 22:59 | 47.85849 | -1.60475 | 33987 ft | 502 kts | 358° |
| 2026-05-04 23:00 | 47.92811 | -1.60948 | 33988 ft | 502 kts | 358° |
| 2026-05-04 23:00 | 47.99801 | -1.61418 | 33989 ft | 503 kts | 358° |
| 2026-05-04 23:01 | 48.06791 | -1.61892 | 33993 ft | 503 kts | 358° |
| 2026-05-04 23:01 | 48.13765 | -1.62358 | 33994 ft | 503 kts | 358° |
| 2026-05-04 23:02 | 48.20758 | -1.62824 | 33997 ft | 503 kts | 358° |
| 2026-05-04 23:02 | 48.27753 | -1.63294 | 33996 ft | 503 kts | 358° |
| 2026-05-04 23:03 | 48.34752 | -1.63767 | 34000 ft | 503 kts | 358° |
| 2026-05-04 23:03 | 48.41752 | -1.64254 | 34011 ft | 504 kts | 358° |
| 2026-05-04 23:04 | 48.48750 | -1.64744 | 33997 ft | 502 kts | 357° |
| 2026-05-04 23:04 | 48.55739 | -1.65232 | 33994 ft | 503 kts | 358° |
| 2026-05-04 23:05 | 48.62731 | -1.65710 | 33994 ft | 503 kts | 358° |
| 2026-05-04 23:05 | 48.69720 | -1.66191 | 33997 ft | 503 kts | 357° |
| 2026-05-04 23:06 | 48.76706 | -1.66682 | 34000 ft | 502 kts | 357° |
| 2026-05-04 23:06 | 48.83690 | -1.67168 | 34005 ft | 503 kts | 357° |
| 2026-05-04 23:07 | 48.90683 | -1.67652 | 34013 ft | 503 kts | 357° |
| 2026-05-04 23:07 | 48.97676 | -1.68139 | 34016 ft | 503 kts | 357° |
| 2026-05-04 23:08 | 49.04673 | -1.68636 | 34019 ft | 503 kts | 357° |
| 2026-05-04 23:08 | 49.11666 | -1.69141 | 34024 ft | 503 kts | 357° |
| 2026-05-04 23:09 | 49.18647 | -1.69636 | 34029 ft | 502 kts | 357° |
| 2026-05-04 23:09 | 49.25623 | -1.70124 | 34029 ft | 502 kts | 357° |
| 2026-05-04 23:10 | 49.32591 | -1.70612 | 34030 ft | 501 kts | 357° |
| 2026-05-04 23:10 | 49.39539 | -1.71105 | 34032 ft | 500 kts | 357° |
| 2026-05-04 23:11 | 49.46483 | -1.71603 | 34032 ft | 499 kts | 357° |
| 2026-05-04 23:11 | 49.53406 | -1.72104 | 33838 ft | 496 kts | 357° |
| 2026-05-04 23:12 | 49.56810 | -1.72267 | 33553 ft | 494 kts | 2° |
| 2026-05-04 23:12 | 49.60225 | -1.71761 | 33280 ft | 493 kts | 11° |
| 2026-05-04 23:12 | 49.63497 | -1.70488 | 33024 ft | 492 kts | 20° |
| 2026-05-04 23:12 | 49.66692 | -1.68710 | 32987 ft | 484 kts | 21° |
| 2026-05-04 23:13 | 49.69860 | -1.66948 | 32549 ft | 485 kts | 21° |
| 2026-05-04 23:13 | 49.73066 | -1.65175 | 31196 ft | 493 kts | 21° |
| 2026-05-04 23:13 | 49.76312 | -1.63385 | 30193 ft | 494 kts | 21° |
| 2026-05-04 23:13 | 49.79513 | -1.61621 | 29797 ft | 484 kts | 21° |
| 2026-05-04 23:14 | 49.82667 | -1.59881 | 29116 ft | 479 kts | 21° |
| 2026-05-04 23:14 | 49.85793 | -1.58150 | 28375 ft | 474 kts | 21° |
| 2026-05-04 23:14 | 49.88875 | -1.56437 | 27735 ft | 467 kts | 21° |
| 2026-05-04 23:14 | 49.91914 | -1.54741 | 27095 ft | 461 kts | 21° |
| 2026-05-04 23:15 | 49.94909 | -1.53069 | 26502 ft | 455 kts | 21° |
| 2026-05-04 23:15 | 49.97871 | -1.51415 | 25886 ft | 450 kts | 21° |
| 2026-05-04 23:15 | 50.00801 | -1.49787 | 25302 ft | 445 kts | 21° |
| 2026-05-04 23:15 | 50.03729 | -1.48261 | 25040 ft | 443 kts | 19° |
| 2026-05-04 23:16 | 50.06664 | -1.46824 | 24967 ft | 441 kts | 19° |
| 2026-05-04 23:16 | 50.09584 | -1.45442 | 24465 ft | 436 kts | 18° |
| 2026-05-04 23:16 | 50.12473 | -1.44090 | 23906 ft | 432 kts | 18° |
| 2026-05-04 23:16 | 50.15331 | -1.42738 | 23325 ft | 427 kts | 19° |
| 2026-05-04 23:17 | 50.18149 | -1.41377 | 22723 ft | 422 kts | 19° |
| 2026-05-04 23:17 | 50.20940 | -1.40006 | 22098 ft | 419 kts | 19° |
| 2026-05-04 23:17 | 50.23701 | -1.38638 | 21539 ft | 415 kts | 19° |
| 2026-05-04 23:17 | 50.26441 | -1.37277 | 20996 ft | 411 kts | 19° |
| 2026-05-04 23:18 | 50.29150 | -1.35936 | 20465 ft | 407 kts | 19° |
| 2026-05-04 23:18 | 50.31811 | -1.34622 | 19959 ft | 404 kts | 19° |
| 2026-05-04 23:18 | 50.34475 | -1.33279 | 19463 ft | 400 kts | 22° |
| 2026-05-04 23:18 | 50.36896 | -1.31243 | 18988 ft | 393 kts | 39° |
| 2026-05-04 23:19 | 50.38810 | -1.28261 | 18506 ft | 386 kts | 55° |
| 2026-05-04 23:19 | 50.40320 | -1.24812 | 17966 ft | 383 kts | 58° |
| 2026-05-04 23:19 | 50.41797 | -1.21363 | 17432 ft | 379 kts | 57° |
| 2026-05-04 23:19 | 50.43252 | -1.17949 | 16986 ft | 374 kts | 57° |
| 2026-05-04 23:20 | 50.44692 | -1.14574 | 16479 ft | 371 kts | 57° |
| 2026-05-04 23:20 | 50.46100 | -1.11270 | 16160 ft | 370 kts | 57° |
| 2026-05-04 23:20 | 50.47524 | -1.07918 | 15906 ft | 369 kts | 57° |
| 2026-05-04 23:20 | 50.48951 | -1.04560 | 15650 ft | 368 kts | 57° |
| 2026-05-04 23:21 | 50.50657 | -1.01580 | 15397 ft | 369 kts | 40° |
| 2026-05-04 23:21 | 50.52821 | -0.99447 | 14923 ft | 367 kts | 31° |
| 2026-05-04 23:21 | 50.55014 | -0.97532 | 14415 ft | 365 kts | 30° |
| 2026-05-04 23:21 | 50.57263 | -0.95584 | 13916 ft | 363 kts | 30° |
| 2026-05-04 23:22 | 50.59471 | -0.93671 | 13375 ft | 361 kts | 30° |
| 2026-05-04 23:22 | 50.61664 | -0.91765 | 13046 ft | 360 kts | 31° |
| 2026-05-04 23:22 | 50.63818 | -0.89885 | 12670 ft | 357 kts | 30° |
| 2026-05-04 23:22 | 50.65972 | -0.87996 | 12071 ft | 353 kts | 31° |
| 2026-05-04 23:23 | 50.68093 | -0.86132 | 11102 ft | 349 kts | 31° |
| 2026-05-04 23:23 | 50.70198 | -0.84275 | 10257 ft | 343 kts | 31° |
| 2026-05-04 23:23 | 50.72195 | -0.82515 | 10115 ft | 316 kts | 31° |
| 2026-05-04 23:23 | 50.74045 | -0.80886 | 9897 ft | 295 kts | 30° |
| 2026-05-04 23:24 | 50.75809 | -0.79327 | 9340 ft | 287 kts | 31° |
| 2026-05-04 23:24 | 50.77541 | -0.77795 | 8705 ft | 283 kts | 30° |
| 2026-05-04 23:24 | 50.79225 | -0.76305 | 8492 ft | 281 kts | 30° |
| 2026-05-04 23:24 | 50.80942 | -0.74785 | 8369 ft | 282 kts | 30° |
| 2026-05-04 23:25 | 50.82650 | -0.73270 | 8241 ft | 282 kts | 30° |
| 2026-05-04 23:25 | 50.84345 | -0.71765 | 8120 ft | 281 kts | 30° |
| 2026-05-04 23:25 | 50.86046 | -0.70254 | 7991 ft | 280 kts | 30° |
| 2026-05-04 23:25 | 50.87743 | -0.68747 | 7867 ft | 279 kts | 28° |
| 2026-05-04 23:26 | 50.89437 | -0.67241 | 7741 ft | 279 kts | 29° |
| 2026-05-04 23:26 | 50.91125 | -0.65740 | 7614 ft | 278 kts | 29° |
| 2026-05-04 23:26 | 50.92806 | -0.64241 | 7466 ft | 278 kts | 29° |
| 2026-05-04 23:26 | 50.94484 | -0.62742 | 7150 ft | 276 kts | 29° |
| 2026-05-04 23:27 | 50.96139 | -0.61262 | 6801 ft | 273 kts | 28° |
| 2026-05-04 23:27 | 50.97786 | -0.59794 | 6444 ft | 269 kts | 28° |
| 2026-05-04 23:27 | 50.99379 | -0.58372 | 6079 ft | 256 kts | 28° |
| 2026-05-04 23:27 | 51.00881 | -0.57025 | 5751 ft | 243 kts | 28° |
| 2026-05-04 23:28 | 51.02311 | -0.55741 | 5438 ft | 230 kts | 27° |
| 2026-05-04 23:28 | 51.03669 | -0.54521 | 5142 ft | 219 kts | 27° |
| 2026-05-04 23:28 | 51.04960 | -0.53360 | 4865 ft | 208 kts | 27° |
| 2026-05-04 23:28 | 51.06186 | -0.52260 | 4617 ft | 196 kts | 27° |
| 2026-05-04 23:29 | 51.07335 | -0.51231 | 4325 ft | 186 kts | 28° |
| 2026-05-04 23:29 | 51.08451 | -0.50233 | 4091 ft | 184 kts | 28° |
| 2026-05-04 23:29 | 51.09547 | -0.49242 | 3857 ft | 178 kts | 31° |
| 2026-05-04 23:29 | 51.10444 | -0.47966 | 3625 ft | 174 kts | 51° |
| 2026-05-04 23:30 | 51.11005 | -0.46298 | 3391 ft | 170 kts | 70° |
| 2026-05-04 23:30 | 51.11270 | -0.44492 | 3169 ft | 165 kts | 76° |
| 2026-05-04 23:30 | 51.11516 | -0.42726 | 2943 ft | 162 kts | 76° |
| 2026-05-04 23:30 | 51.11761 | -0.40984 | 2734 ft | 161 kts | 75° |
| 2026-05-04 23:31 | 51.12005 | -0.39254 | 2524 ft | 160 kts | 75° |
| 2026-05-04 23:31 | 51.12247 | -0.37537 | 2310 ft | 158 kts | 75° |
| 2026-05-04 23:31 | 51.12486 | -0.35838 | 2100 ft | 157 kts | 76° |
| 2026-05-04 23:31 | 51.12721 | -0.34147 | 1891 ft | 156 kts | 76° |
| 2026-05-04 23:32 | 51.12953 | -0.32468 | 1684 ft | 155 kts | 76° |
| 2026-05-04 23:32 | 51.13180 | -0.30829 | 1466 ft | 148 kts | 75° |
| 2026-05-04 23:32 | 51.13395 | -0.29265 | 1284 ft | 143 kts | 76° |
| 2026-05-04 23:32 | 51.13607 | -0.27736 | 1101 ft | 141 kts | 76° |
| 2026-05-04 23:33 | 51.13815 | -0.26219 | 944 ft | 140 kts | 77° |
| 2026-05-04 23:33 | 51.14029 | -0.24702 | 729 ft | 140 kts | 77° |
| 2026-05-04 23:33 | 51.14238 | -0.23190 | 567 ft | 141 kts | 78° |
| 2026-05-04 23:33 | 51.14451 | -0.21669 | 383 ft | 139 kts | 77° |
| 2026-05-04 23:34 | 51.14656 | -0.20183 | 216 ft | 135 kts | 77° |
| 2026-05-04 23:34 | 51.14806 | -0.19098 | 211 ft | 60 kts | 77° |
| 2026-05-04 23:34 | 51.14845 | -0.18813 | 210 ft | 37 kts | 77° |
| 2026-05-04 23:34 | 51.14955 | -0.18484 | 207 ft | 32 kts | 51° |
| 2026-05-04 23:35 | 51.15052 | -0.18293 | 207 ft | 20 kts | 51° |
| 2026-05-04 23:35 | 51.15107 | -0.18191 | 210 ft | 9 kts | 39° |
| 2026-05-04 23:35 | 51.15169 | -0.18201 | 204 ft | 10 kts | 347° |
| 2026-05-04 23:35 | 51.15237 | -0.18226 | 204 ft | 11 kts | 348° |
| 2026-05-04 23:36 | 51.15320 | -0.18253 | 213 ft | 13 kts | 348° |
| 2026-05-04 23:36 | 51.15418 | -0.18286 | 204 ft | 16 kts | 348° |
| 2026-05-04 23:36 | 51.15543 | -0.18328 | 208 ft | 20 kts | 347° |
| 2026-05-04 23:36 | 51.15630 | -0.18347 | 204 ft | 9 kts | 18° |
| 2026-05-04 23:37 | 51.15659 | -0.18253 | 204 ft | 12 kts | 78° |
| 2026-05-04 23:37 | 51.15679 | -0.18104 | 210 ft | 15 kts | 78° |
| 2026-05-04 23:37 | 51.15704 | -0.17923 | 208 ft | 18 kts | 77° |
| 2026-05-04 23:37 | 51.15733 | -0.17713 | 204 ft | 21 kts | 77° |
| 2026-05-04 23:38 | 51.15766 | -0.17472 | 215 ft | 23 kts | 78° |
| 2026-05-04 23:38 | 51.15799 | -0.17230 | 206 ft | 17 kts | 78° |
| 2026-05-04 23:38 | 51.15822 | -0.17104 | 210 ft | 11 kts | 54° |
| 2026-05-04 23:38 | 51.15893 | -0.17099 | 216 ft | 12 kts | 319° |
| 2026-05-04 23:39 | 51.15927 | -0.17151 | 211 ft | 3 kts | 316° |
| 2026-05-04 23:39 | 51.15929 | -0.17155 | 204 ft | 0 kts | 316° |